createdAt,value
2023-01-19T00:01:30.878Z,7.63
2023-01-19T00:03:58.101Z,4.63
2023-01-19T00:06:25.428Z,6.28
2023-01-19T00:08:52.669Z,4.03
2023-01-19T00:11:20.404Z,2.38
2023-01-19T00:13:51.182Z,2.45
2023-01-19T00:16:19.262Z,3.95
2023-01-19T00:18:46.618Z,0.80
2023-01-19T00:21:16.874Z,4.03
2023-01-19T00:23:47.327Z,1.98
2023-01-19T00:26:16.197Z,1.90
2023-01-19T00:28:46.787Z,2.35
2023-01-19T00:31:14.128Z,2.83
2023-01-19T00:33:41.340Z,2.15
2023-01-19T00:36:08.772Z,5.63
2023-01-19T00:38:35.892Z,4.38
2023-01-19T00:41:03.015Z,2.08
2023-01-19T00:43:30.336Z,6.68
2023-01-19T00:45:57.526Z,4.30
2023-01-19T00:48:24.707Z,8.15
2023-01-19T00:50:51.888Z,5.03
2023-01-19T00:53:19.244Z,5.40
2023-01-19T00:55:46.430Z,8.70
2023-01-19T00:58:13.720Z,9.95
2023-01-19T01:00:41.052Z,7.45
2023-01-19T01:03:08.516Z,10.45
2023-01-19T01:05:35.900Z,8.75
2023-01-19T01:08:03.133Z,6.28
2023-01-19T01:10:30.506Z,7.28
2023-01-19T01:13:23.693Z,4.10
2023-01-19T01:15:44.939Z,2.45
2023-01-19T01:18:12.195Z,2.10
2023-01-19T01:20:39.426Z,0.65
2023-01-19T01:23:06.580Z,6.82
2023-01-19T01:25:37.463Z,2.47
2023-01-19T01:28:08.631Z,3.00
2023-01-19T01:30:40.008Z,2.78
2023-01-19T01:33:11.735Z,0.50
2023-01-19T01:35:39.170Z,0.40
2023-01-19T01:38:06.321Z,2.85
2023-01-19T01:40:33.453Z,1.05
2023-01-19T01:43:02.821Z,1.42
2023-01-19T01:45:34.974Z,0.32
2023-01-19T01:48:04.351Z,3.03
2023-01-19T01:50:33.160Z,4.72
2023-01-19T01:53:06.347Z,1.50
2023-01-19T01:55:35.722Z,1.65
2023-01-19T01:58:05.170Z,4.55
2023-01-19T02:00:51.416Z,1.83
2023-01-19T02:03:18.738Z,0.63
2023-01-19T02:05:46.143Z,3.15
2023-01-19T02:08:39.874Z,2.92
2023-01-19T02:11:26.283Z,5.57
2023-01-19T02:13:53.933Z,6.35
2023-01-19T02:16:21.413Z,3.70
2023-01-19T02:18:48.626Z,3.45
2023-01-19T02:21:15.813Z,1.50
2023-01-19T02:23:43.011Z,3.80
2023-01-19T02:26:11.457Z,5.55
2023-01-19T02:28:40.425Z,10.80
2023-01-19T02:31:07.791Z,2.63
2023-01-19T02:33:35.216Z,1.83
2023-01-19T02:36:02.995Z,1.08
2023-01-19T02:38:31.107Z,6.32
2023-01-19T02:40:59.453Z,6.22
2023-01-19T02:43:27.564Z,3.33
2023-01-19T02:45:56.144Z,4.50
2023-01-19T02:48:23.356Z,8.07
2023-01-19T02:50:53.889Z,3.05
2023-01-19T02:53:21.045Z,3.75
2023-01-19T02:55:57.182Z,6.45
2023-01-19T02:58:33.244Z,4.65
2023-01-19T03:01:20.294Z,5.18
2023-01-19T03:03:47.927Z,1.80
2023-01-19T03:06:34.265Z,1.67
2023-01-19T03:09:03.795Z,1.83
2023-01-19T03:11:35.240Z,4.35
2023-01-19T03:14:09.332Z,3.22
2023-01-19T03:16:38.664Z,3.15
2023-01-19T03:19:09.463Z,2.08
2023-01-19T03:24:07.074Z,1.55
2023-01-19T03:26:37.966Z,4.47
2023-01-19T03:29:06.920Z,3.40
2023-01-19T03:31:34.664Z,5.32
2023-01-19T03:34:05.380Z,1.60
2023-01-19T03:39:00.902Z,6.97
2023-01-19T03:41:28.672Z,2.45
2023-01-19T03:43:56.505Z,1.33
2023-01-19T03:46:24.238Z,3.30
2023-01-19T03:48:51.666Z,3.10
2023-01-19T03:51:19.618Z,1.67
2023-01-19T03:53:47.736Z,4.22
2023-01-19T03:56:18.103Z,3.08
2023-01-19T03:58:45.712Z,3.20
2023-01-19T04:01:13.996Z,3.20
2023-01-19T04:03:41.800Z,5.82
2023-01-19T04:06:09.636Z,1.17
2023-01-19T04:08:37.281Z,2.42
2023-01-19T04:11:04.561Z,2.15
2023-01-19T04:13:32.097Z,1.17
2023-01-19T04:16:02.907Z,2.45
2023-01-19T04:18:32.371Z,0.50
2023-01-19T04:21:05.016Z,3.22
2023-01-19T04:23:32.696Z,4.65
2023-01-19T04:26:04.363Z,1.48
2023-01-19T04:28:32.172Z,5.15
2023-01-19T04:30:59.488Z,4.80
2023-01-19T04:33:27.685Z,6.13
2023-01-19T04:35:56.073Z,3.80
2023-01-19T04:38:23.869Z,4.25
2023-01-19T04:40:52.764Z,3.33
2023-01-19T04:43:22.860Z,9.10
2023-01-19T04:45:50.432Z,9.23
2023-01-19T04:48:18.546Z,3.63
2023-01-19T04:50:45.838Z,3.22
2023-01-19T04:53:13.702Z,8.38
2023-01-19T04:55:41.291Z,7.80
2023-01-19T04:58:08.759Z,5.18
2023-01-19T05:00:36.342Z,7.07
2023-01-19T05:03:04.072Z,2.78
2023-01-19T05:05:33.147Z,6.68
2023-01-19T05:08:00.543Z,8.20
2023-01-19T05:10:27.760Z,5.72
2023-01-19T05:12:55.093Z,8.02
2023-01-19T05:15:22.427Z,9.40
2023-01-19T05:17:49.652Z,13.32
2023-01-19T05:20:17.501Z,4.47
2023-01-19T05:22:49.635Z,10.25
2023-01-19T05:25:16.824Z,7.88
2023-01-19T05:27:44.660Z,9.15
2023-01-19T05:30:12.240Z,10.15
2023-01-19T05:32:39.507Z,8.25
2023-01-19T05:35:07.031Z,5.30
2023-01-19T05:37:34.233Z,10.02
2023-01-19T05:40:01.439Z,9.75
2023-01-19T05:42:29.098Z,8.57
2023-01-19T05:44:57.195Z,11.18
2023-01-19T05:47:24.322Z,7.43
2023-01-19T05:49:51.535Z,13.95
2023-01-19T05:52:18.773Z,13.70
2023-01-19T05:54:45.926Z,13.73
2023-01-19T05:57:13.062Z,7.45
2023-01-19T05:59:40.278Z,7.93
2023-01-19T06:02:07.494Z,12.32
2023-01-19T06:04:34.871Z,9.13
2023-01-19T06:07:02.336Z,11.52
2023-01-19T06:09:29.683Z,9.82
2023-01-19T06:11:57.887Z,11.15
2023-01-19T06:14:25.075Z,14.50
2023-01-19T06:16:52.674Z,7.43
2023-01-19T06:19:19.829Z,12.45
2023-01-19T06:21:49.767Z,9.57
2023-01-19T06:24:17.117Z,14.43
2023-01-19T06:26:44.357Z,7.45
2023-01-19T06:29:12.127Z,11.00
2023-01-19T06:31:39.464Z,11.32
2023-01-19T06:34:06.677Z,10.95
2023-01-19T06:36:33.932Z,12.90
2023-01-19T06:39:05.490Z,11.40
2023-01-19T06:41:33.463Z,10.15
2023-01-19T06:44:00.663Z,10.00
2023-01-19T06:46:27.839Z,10.40
2023-01-19T06:48:55.325Z,10.07
2023-01-19T06:51:22.886Z,8.00
2023-01-19T06:53:50.109Z,11.13
2023-01-19T06:56:17.223Z,6.88
2023-01-19T06:58:44.835Z,12.00
2023-01-19T07:01:12.093Z,9.60
2023-01-19T07:03:39.299Z,7.10
2023-01-19T07:06:06.783Z,3.72
2023-01-19T07:08:34.439Z,8.52
2023-01-19T07:11:25.125Z,8.50
2023-01-19T07:13:55.324Z,10.68
2023-01-19T07:16:22.787Z,7.25
2023-01-19T07:18:50.311Z,12.10
2023-01-19T07:21:17.997Z,15.07
2023-01-19T07:23:45.465Z,13.73
2023-01-19T07:26:15.241Z,10.07
2023-01-19T07:28:42.381Z,9.30
2023-01-19T07:31:09.688Z,7.57
2023-01-19T07:33:36.956Z,10.98
2023-01-19T07:36:04.217Z,11.57
2023-01-19T07:38:31.544Z,7.82
2023-01-19T07:41:05.892Z,10.07
2023-01-19T07:43:33.938Z,10.70
2023-01-19T07:46:02.345Z,14.98
2023-01-19T07:48:29.880Z,10.00
2023-01-19T07:51:13.011Z,8.48
2023-01-19T07:53:41.997Z,12.90
2023-01-19T07:56:09.482Z,9.35
2023-01-19T07:58:36.867Z,11.57
2023-01-19T08:01:22.701Z,8.05
2023-01-19T08:03:50.875Z,10.20
2023-01-19T08:06:29.841Z,11.30
2023-01-19T08:08:57.004Z,9.98
2023-01-19T08:11:24.335Z,10.35
2023-01-19T08:13:51.624Z,9.02
2023-01-19T08:16:19.127Z,59.05
2023-01-19T08:18:46.621Z,32.72
2023-01-19T08:21:14.077Z,20.25
2023-01-19T08:23:41.329Z,9.23
2023-01-19T08:26:18.899Z,11.77
2023-01-19T08:28:46.152Z,14.13
2023-01-19T08:31:20.438Z,8.93
2023-01-19T08:33:49.614Z,12.05
2023-01-19T08:36:16.988Z,15.20
2023-01-19T08:38:47.618Z,11.98
2023-01-19T08:41:16.632Z,11.60
2023-01-19T08:43:45.484Z,7.43
2023-01-19T08:46:16.912Z,12.73
2023-01-19T08:48:45.219Z,12.10
2023-01-19T08:51:13.317Z,11.50
2023-01-19T08:53:41.573Z,10.70
2023-01-19T08:56:12.447Z,11.60
2023-01-19T08:58:43.893Z,10.25
2023-01-19T09:01:11.412Z,7.43
2023-01-19T09:03:38.658Z,14.50
2023-01-19T09:06:07.180Z,9.27
2023-01-19T09:08:34.472Z,14.98
2023-01-19T09:11:02.183Z,10.68
2023-01-19T09:13:29.446Z,12.73
2023-01-19T09:15:56.742Z,13.50
2023-01-19T09:18:24.121Z,10.35
2023-01-19T09:20:51.536Z,14.73
2023-01-19T09:23:20.006Z,11.55
2023-01-19T09:25:47.897Z,10.63
2023-01-19T09:28:15.972Z,10.02
2023-01-19T09:30:43.587Z,10.13
2023-01-19T09:33:11.945Z,10.75
2023-01-19T09:35:39.879Z,7.47
2023-01-19T09:38:09.064Z,11.90
2023-01-19T09:40:48.623Z,9.25
2023-01-19T09:43:54.714Z,11.73
2023-01-19T09:46:25.564Z,7.47
2023-01-19T09:48:53.861Z,11.02
2023-01-19T09:51:23.041Z,6.85
2023-01-19T09:54:13.545Z,12.07
2023-01-19T09:56:41.261Z,9.07
2023-01-19T09:59:31.779Z,12.60
2023-01-19T10:02:08.615Z,9.93
2023-01-19T10:04:43.779Z,7.57
2023-01-19T10:07:13.981Z,12.32
2023-01-19T10:10:00.185Z,9.43
2023-01-19T10:12:27.803Z,8.68
2023-01-19T10:15:01.576Z,11.07
2023-01-19T10:17:43.873Z,8.35
2023-01-19T10:20:18.018Z,11.00
2023-01-19T10:22:48.217Z,8.35
2023-01-19T10:27:42.904Z,8.73
2023-01-19T10:30:14.836Z,11.20
2023-01-19T10:32:42.004Z,10.35
2023-01-19T10:35:21.919Z,8.55
2023-01-19T10:37:49.347Z,7.35
2023-01-19T10:40:28.750Z,6.25
2023-01-19T10:42:56.989Z,9.68
2023-01-19T10:45:30.242Z,5.70
2023-01-19T10:48:06.791Z,8.43
2023-01-19T10:50:37.216Z,8.05
2023-01-19T10:53:06.238Z,10.23
2023-01-19T10:55:39.623Z,7.38
2023-01-19T10:58:26.139Z,10.15
2023-01-19T11:00:53.384Z,6.95
2023-01-19T11:03:25.685Z,3.53
2023-01-19T11:05:52.865Z,5.75
2023-01-19T11:08:37.906Z,7.47
2023-01-19T11:11:08.130Z,8.23
2023-01-19T11:13:35.817Z,5.13
2023-01-19T11:16:25.490Z,9.18
2023-01-19T11:18:54.445Z,5.47
2023-01-19T11:21:32.776Z,8.30
2023-01-19T11:24:02.630Z,6.25
2023-01-19T11:26:47.894Z,8.05
2023-01-19T11:29:21.252Z,7.50
2023-01-19T11:31:48.855Z,10.48
2023-01-19T11:34:38.065Z,11.30
2023-01-19T11:37:19.875Z,8.80
2023-01-19T11:39:52.213Z,8.80
2023-01-19T11:42:20.240Z,5.28
2023-01-19T11:45:17.207Z,6.35
2023-01-19T11:47:56.783Z,7.25
2023-01-19T11:50:39.661Z,6.65
2023-01-19T11:53:30.631Z,5.47
2023-01-19T11:56:20.540Z,4.28
2023-01-19T11:58:47.891Z,3.55
2023-01-19T12:01:29.104Z,6.90
2023-01-19T12:04:11.206Z,5.60
2023-01-19T12:06:45.443Z,7.20
2023-01-19T12:09:19.230Z,3.80
2023-01-19T12:12:07.626Z,6.28
2023-01-19T12:14:50.054Z,5.55
2023-01-19T12:17:26.183Z,7.90
2023-01-19T12:20:13.426Z,9.85
2023-01-19T12:22:49.550Z,5.97
2023-01-19T12:25:22.918Z,4.78
2023-01-19T12:27:51.499Z,5.10
2023-01-19T12:30:25.423Z,6.45
2023-01-19T12:32:52.721Z,7.22
2023-01-19T12:35:53.668Z,6.50
2023-01-19T12:38:36.677Z,4.25
2023-01-19T12:41:15.629Z,6.40
2023-01-19T12:43:42.907Z,7.07
2023-01-19T12:46:30.387Z,6.85
2023-01-19T12:49:16.644Z,5.55
2023-01-19T12:51:44.013Z,4.05
2023-01-19T12:54:28.485Z,7.97
2023-01-19T12:56:58.244Z,5.68
2023-01-19T12:59:26.659Z,1.90
2023-01-19T13:02:18.288Z,7.47
2023-01-19T13:05:09.598Z,5.57
2023-01-19T13:07:55.590Z,5.43
2023-01-19T13:10:55.108Z,7.43
2023-01-19T13:13:23.819Z,10.57
2023-01-19T13:15:51.250Z,10.70
2023-01-19T13:18:20.677Z,7.43
2023-01-19T13:20:51.199Z,5.43
2023-01-19T13:23:23.247Z,6.03
2023-01-19T13:25:52.313Z,5.75
2023-01-19T13:28:20.311Z,13.07
2023-01-19T13:30:53.760Z,4.53
2023-01-19T13:33:22.956Z,3.55
2023-01-19T13:35:54.638Z,3.50
2023-01-19T13:38:22.645Z,6.00
2023-01-19T13:40:49.994Z,5.35
2023-01-19T13:43:19.484Z,5.78
2023-01-19T13:45:50.660Z,2.85
2023-01-19T13:48:22.308Z,5.75
2023-01-19T13:51:00.606Z,4.25
2023-01-19T13:53:28.056Z,6.57
2023-01-19T13:56:08.709Z,3.00
2023-01-19T13:58:36.270Z,4.53
2023-01-19T14:01:03.593Z,8.48
2023-01-19T14:03:31.067Z,7.05
2023-01-19T14:05:58.406Z,3.75
2023-01-19T14:08:26.257Z,3.45
2023-01-19T14:10:56.657Z,3.72
2023-01-19T14:15:55.659Z,5.90
2023-01-19T14:18:25.729Z,5.38
2023-01-19T14:20:57.490Z,4.68
2023-01-19T14:23:42.895Z,3.58
2023-01-19T14:26:29.405Z,9.68
2023-01-19T14:28:56.665Z,7.00
2023-01-19T14:31:26.408Z,6.35
2023-01-19T14:33:54.903Z,4.63
2023-01-19T14:36:36.574Z,4.45
2023-01-19T14:39:04.204Z,4.22
2023-01-19T14:41:44.392Z,4.10
2023-01-19T14:44:12.435Z,3.60
2023-01-19T14:46:44.668Z,4.15
2023-01-19T14:49:17.630Z,13.88
2023-01-19T14:51:48.178Z,6.30
2023-01-19T14:54:20.063Z,10.32
2023-01-19T14:56:47.801Z,8.07
2023-01-19T14:59:15.233Z,5.85
2023-01-19T15:01:42.753Z,7.63
2023-01-19T15:04:10.196Z,9.60
2023-01-19T15:06:39.884Z,5.15
2023-01-19T15:09:07.198Z,4.25
2023-01-19T15:11:35.343Z,5.40
2023-01-19T15:14:03.148Z,4.38
2023-01-19T15:16:32.554Z,4.53
2023-01-19T15:18:59.743Z,4.47
2023-01-19T15:21:27.044Z,9.60
2023-01-19T15:23:54.775Z,8.32
2023-01-19T15:26:23.755Z,8.68
2023-01-19T15:28:51.041Z,5.55
2023-01-19T15:31:22.708Z,9.98
2023-01-19T15:33:50.063Z,6.70
2023-01-19T15:36:18.672Z,5.50
2023-01-19T15:38:46.233Z,8.63
2023-01-19T15:41:13.540Z,5.63
2023-01-19T15:43:41.085Z,6.18
2023-01-19T15:46:08.292Z,12.15
2023-01-19T15:48:35.566Z,13.30
2023-01-19T15:51:03.023Z,19.63
2023-01-19T15:53:30.544Z,15.38
2023-01-19T15:55:57.801Z,8.68
2023-01-19T15:58:25.899Z,7.93
2023-01-19T16:00:55.132Z,9.55
2023-01-19T16:03:22.756Z,13.00
2023-01-19T16:05:50.063Z,9.88
2023-01-19T16:08:17.432Z,11.50
2023-01-19T16:10:44.914Z,10.82
2023-01-19T16:13:12.395Z,12.57
2023-01-19T16:15:42.556Z,8.10
2023-01-19T16:18:10.274Z,9.48
2023-01-19T16:20:37.526Z,10.05
2023-01-19T16:23:20.113Z,10.95
2023-01-19T16:25:56.064Z,11.93
2023-01-19T16:28:23.247Z,11.55
2023-01-19T16:30:50.936Z,17.02
2023-01-19T16:33:18.351Z,20.73
2023-01-19T16:35:45.538Z,14.20
2023-01-19T16:38:12.787Z,13.48
2023-01-19T16:40:40.140Z,12.32
2023-01-19T16:43:07.697Z,11.38
2023-01-19T16:45:35.016Z,2.78
2023-01-19T16:48:02.253Z,4.32
2023-01-19T16:50:29.600Z,8.23
2023-01-19T16:52:57.576Z,9.30
2023-01-19T16:55:24.753Z,7.90
2023-01-19T16:57:52.513Z,9.43
2023-01-19T17:00:19.827Z,8.88
2023-01-19T17:02:47.004Z,19.13
2023-01-19T17:05:14.591Z,17.77
2023-01-19T17:07:41.772Z,12.48
2023-01-19T17:10:09.780Z,16.13
2023-01-19T17:12:37.136Z,17.65
2023-01-19T17:15:04.512Z,19.13
2023-01-19T17:17:31.630Z,13.23
2023-01-19T17:20:00.338Z,7.78
2023-01-19T17:22:27.615Z,12.02
2023-01-19T17:24:54.850Z,6.20
2023-01-19T17:27:21.967Z,10.32
2023-01-19T17:29:50.233Z,11.68
2023-01-19T17:32:17.398Z,24.77
2023-01-19T17:34:46.662Z,29.10
2023-01-19T17:37:13.816Z,28.73
2023-01-19T17:39:41.239Z,26.25
2023-01-19T17:42:08.508Z,16.48
2023-01-19T17:44:35.719Z,6.10
2023-01-19T17:47:03.045Z,5.30
2023-01-19T17:49:30.312Z,0.60
2023-01-19T17:51:57.621Z,5.70
2023-01-19T17:54:24.798Z,7.20
2023-01-19T17:56:52.047Z,6.45
2023-01-19T17:59:19.443Z,8.63
2023-01-19T18:01:46.923Z,16.85
2023-01-19T18:04:14.127Z,9.93
2023-01-19T18:06:41.429Z,12.65
2023-01-19T18:09:08.774Z,10.27
2023-01-19T18:11:36.489Z,9.60
2023-01-19T18:14:04.198Z,7.32
2023-01-19T18:16:32.519Z,10.45
2023-01-19T18:18:59.749Z,14.90
2023-01-19T18:21:28.260Z,13.85
2023-01-19T18:24:00.163Z,12.30
2023-01-19T18:26:27.407Z,12.18
2023-01-19T18:28:56.644Z,14.40
2023-01-19T18:31:24.267Z,11.55
2023-01-19T18:33:51.502Z,12.45
2023-01-19T18:36:18.637Z,13.65
2023-01-19T18:38:46.986Z,12.27
2023-01-19T18:41:15.316Z,17.33
2023-01-19T18:43:42.969Z,13.88
2023-01-19T18:46:10.704Z,10.82
2023-01-19T18:48:38.387Z,10.75
2023-01-19T18:51:06.577Z,7.60
2023-01-19T18:53:33.783Z,10.95
2023-01-19T18:56:02.093Z,13.20
2023-01-19T18:58:31.419Z,13.25
2023-01-19T19:00:59.542Z,7.85
2023-01-19T19:03:26.789Z,6.72
2023-01-19T19:05:54.086Z,8.00
2023-01-19T19:08:21.485Z,10.57
2023-01-19T19:10:48.741Z,10.40
2023-01-19T19:13:16.959Z,5.28
2023-01-19T19:15:44.612Z,7.07
2023-01-19T19:18:14.237Z,2.13
2023-01-19T19:20:45.052Z,5.25
2023-01-19T19:23:12.619Z,2.45
2023-01-19T19:25:40.098Z,7.00
2023-01-19T19:28:07.784Z,3.40
2023-01-19T19:30:37.808Z,3.30
2023-01-19T19:33:05.291Z,5.30
2023-01-19T19:35:32.603Z,5.90
2023-01-19T19:37:59.885Z,5.32
2023-01-19T19:40:27.441Z,3.95
2023-01-19T19:42:56.435Z,4.10
2023-01-19T19:45:25.638Z,3.25
2023-01-19T19:47:52.957Z,4.88
2023-01-19T19:50:20.351Z,3.72
2023-01-19T19:52:47.631Z,20.85
2023-01-19T19:55:14.965Z,10.85
2023-01-19T19:57:42.257Z,6.47
2023-01-19T20:00:09.824Z,3.60
2023-01-19T20:02:37.177Z,2.42
2023-01-19T20:05:06.179Z,3.13
2023-01-19T20:07:33.528Z,3.92
2023-01-19T20:10:00.722Z,4.35
2023-01-19T20:12:27.924Z,3.63
2023-01-19T20:14:55.122Z,4.40
2023-01-19T20:17:23.343Z,4.18
2023-01-19T20:19:50.560Z,3.45
2023-01-19T20:22:17.769Z,2.10
2023-01-19T20:24:45.041Z,5.55
2023-01-19T20:27:12.220Z,4.63
2023-01-19T20:29:39.401Z,7.18
2023-01-19T20:32:06.809Z,3.83
2023-01-19T20:34:35.683Z,2.75
2023-01-19T20:37:04.555Z,6.07
2023-01-19T20:39:33.424Z,3.22
2023-01-19T20:42:00.878Z,5.00
2023-01-19T20:44:28.229Z,5.70
2023-01-19T20:46:55.718Z,3.08
2023-01-19T20:49:22.984Z,8.63
2023-01-19T20:51:51.873Z,3.20
2023-01-19T20:54:19.867Z,2.05
2023-01-19T20:56:47.037Z,10.15
2023-01-19T20:59:14.476Z,6.40
2023-01-19T21:01:42.310Z,8.88
2023-01-19T21:04:10.100Z,6.20
2023-01-19T21:06:37.345Z,4.70
2023-01-19T21:09:04.632Z,10.00
2023-01-19T21:11:31.908Z,4.32
2023-01-19T21:13:59.394Z,6.47
2023-01-19T21:16:27.926Z,6.70
2023-01-19T21:18:55.369Z,8.18
2023-01-19T21:21:30.465Z,7.88
2023-01-19T21:23:58.956Z,8.07
2023-01-19T21:26:26.751Z,5.75
2023-01-19T21:28:54.095Z,6.25
2023-01-19T21:31:27.091Z,3.67
2023-01-19T21:33:54.808Z,7.43
2023-01-19T21:36:22.723Z,3.28
2023-01-19T21:38:51.380Z,5.68
2023-01-19T21:41:18.870Z,9.13
2023-01-19T21:43:46.187Z,8.63
2023-01-19T21:46:14.775Z,4.13
2023-01-19T21:48:43.244Z,8.50
2023-01-19T21:51:10.773Z,7.88
2023-01-19T21:53:38.255Z,5.97
2023-01-19T21:56:09.511Z,13.55
2023-01-19T21:58:36.941Z,10.35
2023-01-19T22:01:05.581Z,6.68
2023-01-19T22:03:32.852Z,9.80
2023-01-19T22:06:26.404Z,9.88
2023-01-19T22:08:53.963Z,4.78
2023-01-19T22:11:22.119Z,10.60
2023-01-19T22:13:49.657Z,7.68
2023-01-19T22:16:32.089Z,5.80
2023-01-19T22:19:01.290Z,8.40
2023-01-19T22:21:30.372Z,13.02
2023-01-19T22:24:01.806Z,10.70
2023-01-19T22:26:29.665Z,10.95
2023-01-19T22:28:59.026Z,14.05
2023-01-19T22:31:26.783Z,11.98
2023-01-19T22:33:54.363Z,15.52
2023-01-19T22:36:23.317Z,11.45
2023-01-19T22:38:51.665Z,13.07
2023-01-19T22:41:20.471Z,12.82
2023-01-19T22:43:48.285Z,12.90
2023-01-19T22:46:19.457Z,12.10
2023-01-19T22:48:47.373Z,8.68
2023-01-19T22:51:15.217Z,12.40
2023-01-19T22:53:42.521Z,14.10
2023-01-19T22:56:10.741Z,12.52
2023-01-19T22:58:40.245Z,11.70
2023-01-19T23:01:08.524Z,7.78
2023-01-19T23:03:36.135Z,11.80
2023-01-19T23:06:07.116Z,14.43
2023-01-19T23:08:34.502Z,10.95
2023-01-19T23:11:05.870Z,11.07
2023-01-19T23:13:33.132Z,11.10
2023-01-19T23:16:00.566Z,13.68
2023-01-19T23:18:27.820Z,6.78
2023-01-19T23:20:55.283Z,10.27
2023-01-19T23:23:22.486Z,13.07
2023-01-19T23:25:49.726Z,8.68
2023-01-19T23:28:16.924Z,11.30
2023-01-19T23:30:44.571Z,11.40
2023-01-19T23:33:11.831Z,13.75
2023-01-19T23:35:39.063Z,5.90
2023-01-19T23:38:06.201Z,10.45
2023-01-19T23:40:33.432Z,11.50
2023-01-19T23:43:00.993Z,11.43
2023-01-19T23:45:28.191Z,10.05
2023-01-19T23:47:55.313Z,11.48
2023-01-19T23:50:22.491Z,10.40
2023-01-19T23:52:50.752Z,6.93
2023-01-19T23:55:17.913Z,13.85
2023-01-19T23:57:45.115Z,12.35
